Kentontown, Kentucky
Current Conditions -  °F | °C
As of 12:35 AM on Thursday 27 Nov 2014 (Local Time) from KFGX Reporting Station
Broken Clouds Broken Clouds  
Wind Chill: 27°   Ceiling: 10000
Heat Index: 32°   Visibility: 7mi
Dew Point: 28°   Wind: 5mph
Humidity: 87%   Direction: 50°NE
Pressure: 30.04"   Gusts: NA
Location:  38.5189°N, 84.0521°W
Report Text: KFGX 270535Z AUTO 05004KT 7SM BKN100 00/M02 A3004 RMK AO2 T00001020
Loading
Personal Weather Stations






























Interactive Weather Map New forecast layout! Learn more

10-Day Weather Forecast

Advertisements
Track Severe Weather on mobile